Time;durP1;ratioP1;P1;durP2;ratioP2;P2;SDS_P1;SDS_P2;PMS_P1;PMS_P2;Temp;Humidity;BMP_temperature;BMP_pressure;BME280_temperature;BME280_humidity;BME280_pressure;Samples;Min_cycle;Max_cycle;Signal;HPM_P1;HPM_P2
2023/11/08 00:01:33;;;;;;;3.57;0.97;;;9.20;99.90;;;;;;4928271;29;20458;-67
2023/11/08 00:03:59;;;;;;;2.47;1.37;;;9.30;99.90;;;;;;4921726;29;20419;-69
2023/11/08 00:06:26;;;;;;;6.50;1.23;;;9.30;99.90;;;;;;4903471;29;20222;-69
2023/11/08 00:08:52;;;;;;;5.13;1.00;;;9.30;99.90;;;;;;4915295;29;20705;-67
2023/11/08 00:11:23;;;;;;;1.40;0.80;;;9.30;99.90;;;;;;4910524;29;20490;-67
2023/11/08 00:13:50;;;;;;;2.67;0.90;;;9.30;99.90;;;;;;4919585;29;20194;-69
2023/11/08 00:16:17;;;;;;;5.53;1.20;;;9.40;99.90;;;;;;4909018;29;20439;-69
2023/11/08 00:18:44;;;;;;;3.17;1.07;;;9.30;99.90;;;;;;4900852;29;20423;-67
2023/11/08 00:21:10;;;;;;;5.40;1.00;;;9.40;99.90;;;;;;4910283;29;20432;-68
2023/11/08 00:23:36;;;;;;;3.63;1.30;;;9.40;99.90;;;;;;4901312;29;20439;-68
2023/11/08 00:26:01;;;;;;;4.33;1.30;;;9.40;99.90;;;;;;4906651;29;20214;-68
2023/11/08 00:28:27;;;;;;;4.97;2.80;;;9.40;99.90;;;;;;4904175;29;20358;-67
2023/11/08 00:30:53;;;;;;;2.60;0.80;;;9.40;99.90;;;;;;4906086;29;20815;-67
2023/11/08 00:33:18;;;;;;;1.70;0.80;;;9.40;99.90;;;;;;4910118;29;20193;-68
2023/11/08 00:35:44;;;;;;;1.77;0.90;;;9.40;99.90;;;;;;4902575;29;20285;-69
2023/11/08 00:38:10;;;;;;;1.17;0.60;;;9.40;99.90;;;;;;4920145;29;20209;-68
2023/11/08 00:40:35;;;;;;;2.50;1.10;;;9.40;99.90;;;;;;4916245;29;20194;-69
2023/11/08 00:43:01;;;;;;;2.60;0.80;;;9.30;99.90;;;;;;4903634;29;20645;-68
2023/11/08 00:45:27;;;;;;;1.93;1.00;;;9.40;99.90;;;;;;4909506;29;20451;-68
2023/11/08 00:47:52;;;;;;;2.50;1.03;;;9.40;99.90;;;;;;4907530;29;20504;-68
2023/11/08 00:50:19;;;;;;;1.53;0.70;;;9.40;99.90;;;;;;4910356;29;20213;-68
2023/11/08 00:52:44;;;;;;;1.70;0.70;;;9.40;99.90;;;;;;4901740;29;20527;-68
2023/11/08 00:55:11;;;;;;;2.70;0.97;;;9.40;99.90;;;;;;4909775;29;20436;-69
2023/11/08 00:57:36;;;;;;;3.97;0.93;;;9.40;99.90;;;;;;4933299;29;20218;-68
2023/11/08 01:00:07;;;;;;;1.17;0.77;;;9.40;99.90;;;;;;4911372;29;20430;-68
2023/11/08 01:02:33;;;;;;;2.20;0.90;;;9.40;99.90;;;;;;4916330;29;20195;-67
2023/11/08 01:04:59;;;;;;;3.03;1.00;;;9.40;99.90;;;;;;4913376;29;20471;-67
2023/11/08 01:07:24;;;;;;;2.50;0.93;;;9.50;99.90;;;;;;4884293;29;20459;-67
2023/11/08 01:09:50;;;;;;;1.40;0.80;;;9.50;99.90;;;;;;4900863;29;20203;-66
2023/11/08 01:12:16;;;;;;;4.50;1.10;;;9.50;99.90;;;;;;4919973;29;20196;-68
2023/11/08 01:14:42;;;;;;;2.53;0.90;;;9.50;99.90;;;;;;4913971;29;20218;-68
2023/11/08 01:17:08;;;;;;;1.83;0.80;;;9.50;99.90;;;;;;4904565;29;20917;-68
2023/11/08 01:19:36;;;;;;;3.93;0.90;;;9.50;99.90;;;;;;4886983;29;20231;-67
2023/11/08 01:22:05;;;;;;;2.43;1.20;;;9.50;99.90;;;;;;4920887;29;20446;-68
2023/11/08 01:24:34;;;;;;;3.73;0.80;;;9.50;99.90;;;;;;4913381;29;20529;-68
2023/11/08 01:27:01;;;;;;;3.50;1.20;;;9.50;99.90;;;;;;4922722;29;20475;-67
2023/11/08 01:29:27;;;;;;;2.27;0.80;;;9.50;99.90;;;;;;4905254;29;20455;-67
2023/11/08 01:31:54;;;;;;;2.03;0.70;;;9.50;99.90;;;;;;4888986;29;20427;-70
2023/11/08 01:34:20;;;;;;;2.13;0.80;;;9.50;99.90;;;;;;4912476;29;20497;-67
2023/11/08 01:36:46;;;;;;;2.03;0.90;;;9.50;99.90;;;;;;4906746;29;20934;-69
2023/11/08 01:39:12;;;;;;;5.27;1.10;;;9.40;99.90;;;;;;4909606;29;20509;-66
2023/11/08 01:41:38;;;;;;;2.77;1.10;;;9.50;99.90;;;;;;4922368;29;20190;-68
2023/11/08 01:44:04;;;;;;;2.10;1.00;;;9.40;99.90;;;;;;4921163;29;20190;-67
2023/11/08 01:46:31;;;;;;;1.60;0.80;;;9.50;99.90;;;;;;4912100;29;20478;-67
2023/11/08 01:48:58;;;;;;;3.43;0.90;;;9.50;99.90;;;;;;4921986;29;20462;-68
2023/11/08 01:51:25;;;;;;;2.73;0.90;;;9.40;99.90;;;;;;4907946;29;20416;-68
2023/11/08 01:53:52;;;;;;;1.63;0.93;;;9.40;99.90;;;;;;4932829;29;20818;-68
2023/11/08 01:56:19;;;;;;;2.50;1.20;;;9.40;99.90;;;;;;4907397;29;20728;-68
2023/11/08 01:58:46;;;;;;;3.13;1.23;;;9.40;99.90;;;;;;4936427;29;20462;-67
2023/11/08 02:01:12;;;;;;;1.53;0.70;;;9.40;99.90;;;;;;4933046;29;20491;-68
2023/11/08 02:03:39;;;;;;;3.07;1.03;;;9.40;99.90;;;;;;4889867;29;20763;-68
2023/11/08 02:06:07;;;;;;;1.77;0.80;;;9.40;99.90;;;;;;4921559;29;20450;-68
2023/11/08 02:08:34;;;;;;;2.20;0.60;;;9.40;99.90;;;;;;4922448;29;20522;-67
2023/11/08 02:11:00;;;;;;;1.67;0.80;;;9.40;99.90;;;;;;4905564;29;20444;-68
2023/11/08 02:13:26;;;;;;;1.50;0.70;;;9.40;99.90;;;;;;4936186;29;20510;-67
2023/11/08 02:15:53;;;;;;;2.07;0.67;;;9.40;99.90;;;;;;4926026;29;20507;-67
2023/11/08 02:18:18;;;;;;;2.13;0.80;;;9.40;99.90;;;;;;4934572;29;20426;-68
2023/11/08 02:20:44;;;;;;;2.70;0.93;;;9.40;99.90;;;;;;4917991;29;20441;-68
2023/11/08 02:23:10;;;;;;;3.67;1.23;;;9.40;99.90;;;;;;4912587;29;20262;-67
2023/11/08 02:25:38;;;;;;;4.30;1.10;;;9.40;99.90;;;;;;4885950;29;20929;-68
2023/11/08 02:28:04;;;;;;;2.37;0.90;;;9.40;99.90;;;;;;4915328;29;20458;-68
2023/11/08 02:30:29;;;;;;;2.87;1.00;;;9.40;99.90;;;;;;4912183;29;20576;-70
2023/11/08 02:32:55;;;;;;;1.23;0.73;;;9.40;99.90;;;;;;4912761;29;20626;-67
2023/11/08 02:35:21;;;;;;;2.50;1.00;;;9.50;99.90;;;;;;4895132;29;20546;-67
2023/11/08 02:37:47;;;;;;;3.00;0.83;;;9.40;99.90;;;;;;4924873;29;20282;-67
2023/11/08 02:40:13;;;;;;;2.77;1.00;;;9.40;99.90;;;;;;4911989;29;20183;-67
2023/11/08 02:42:42;;;;;;;2.60;0.90;;;9.40;99.90;;;;;;4904842;29;20438;-68
2023/11/08 02:45:08;;;;;;;1.60;0.63;;;9.40;99.90;;;;;;4902879;29;20293;-67
2023/11/08 02:47:34;;;;;;;0.80;0.50;;;9.40;99.90;;;;;;4911791;29;20462;-68
2023/11/08 02:50:00;;;;;;;1.80;0.87;;;9.40;99.90;;;;;;4921282;29;20502;-68
2023/11/08 02:52:25;;;;;;;2.60;1.00;;;9.40;99.90;;;;;;4918284;29;20191;-68
2023/11/08 02:54:52;;;;;;;2.43;1.07;;;9.40;99.90;;;;;;4926430;29;20447;-67
2023/11/08 02:57:18;;;;;;;3.13;1.10;;;9.50;99.90;;;;;;4911882;29;20254;-67
2023/11/08 02:59:45;;;;;;;1.87;1.13;;;9.50;99.90;;;;;;4912448;29;20453;-67
2023/11/08 03:02:10;;;;;;;1.73;0.87;;;9.50;99.90;;;;;;4911813;29;20424;-67
2023/11/08 03:04:39;;;;;;;2.87;0.80;;;9.50;99.90;;;;;;4902233;29;20523;-67
2023/11/08 03:07:05;;;;;;;1.43;0.70;;;9.50;99.90;;;;;;4890562;29;20324;-68
2023/11/08 03:09:31;;;;;;;2.60;1.27;;;9.50;99.90;;;;;;4907216;29;20449;-67
2023/11/08 03:11:58;;;;;;;4.33;1.20;;;9.50;99.90;;;;;;4906073;29;20254;-68
2023/11/08 03:14:27;;;;;;;3.20;1.07;;;9.50;99.90;;;;;;4916591;29;20194;-67
2023/11/08 03:16:54;;;;;;;6.10;1.50;;;9.50;99.90;;;;;;4901697;29;20420;-68
2023/11/08 03:19:20;;;;;;;2.07;0.97;;;9.50;99.90;;;;;;4901450;29;20435;-68
2023/11/08 03:21:48;;;;;;;6.97;1.40;;;9.50;99.90;;;;;;4914550;29;20589;-68
2023/11/08 03:24:18;;;;;;;2.60;0.80;;;9.50;99.90;;;;;;4918218;29;20556;-68
2023/11/08 03:26:46;;;;;;;1.60;0.87;;;9.50;99.90;;;;;;4910217;29;20422;-68
2023/11/08 03:29:12;;;;;;;2.00;1.20;;;9.40;99.90;;;;;;4906755;29;20474;-68
2023/11/08 03:31:37;;;;;;;2.07;1.07;;;9.30;99.90;;;;;;4901513;29;20443;-68
2023/11/08 03:34:03;;;;;;;2.83;0.87;;;9.20;99.90;;;;;;4900552;29;20239;-66
2023/11/08 03:36:29;;;;;;;1.40;0.70;;;9.20;99.90;;;;;;4904809;29;20230;-67
2023/11/08 03:38:56;;;;;;;2.43;1.00;;;9.20;99.90;;;;;;4913101;29;20489;-67
2023/11/08 03:41:24;;;;;;;2.77;1.10;;;9.20;99.90;;;;;;4914289;29;20427;-68
2023/11/08 03:43:51;;;;;;;3.73;1.03;;;9.20;99.90;;;;;;4918128;29;20510;-67
2023/11/08 03:46:16;;;;;;;1.70;0.80;;;9.20;99.90;;;;;;4912651;29;20470;-68
2023/11/08 03:48:42;;;;;;;2.47;0.80;;;9.20;99.90;;;;;;4909101;29;20928;-67
2023/11/08 03:51:08;;;;;;;1.70;0.83;;;9.20;99.90;;;;;;4911253;29;20554;-69
2023/11/08 03:53:34;;;;;;;3.57;1.30;;;9.20;99.90;;;;;;4919618;29;20217;-67
2023/11/08 03:55:59;;;;;;;3.80;1.30;;;9.10;99.90;;;;;;4920024;29;20470;-67
2023/11/08 03:58:25;;;;;;;4.43;1.13;;;9.00;99.90;;;;;;4904162;29;20218;-67
2023/11/08 04:00:51;;;;;;;3.10;1.00;;;8.90;99.90;;;;;;4901241;29;20259;-67
2023/11/08 04:03:16;;;;;;;2.90;0.93;;;8.80;99.90;;;;;;4900662;29;20194;-67
2023/11/08 04:05:43;;;;;;;4.90;1.40;;;8.70;99.90;;;;;;4909217;29;20602;-68
2023/11/08 04:08:08;;;;;;;3.30;1.10;;;8.70;99.90;;;;;;4919601;29;20226;-67
2023/11/08 04:10:34;;;;;;;4.50;1.20;;;8.60;99.90;;;;;;4903790;29;20754;-67
2023/11/08 04:12:59;;;;;;;3.23;1.10;;;8.60;99.90;;;;;;4912751;29;20199;-68
2023/11/08 04:15:25;;;;;;;3.47;1.10;;;8.70;99.90;;;;;;4912271;29;20215;-68
2023/11/08 04:17:50;;;;;;;2.00;0.97;;;8.70;99.90;;;;;;4912396;29;20199;-69
2023/11/08 04:20:16;;;;;;;1.67;0.97;;;8.80;99.90;;;;;;4923214;29;20494;-68
2023/11/08 04:22:42;;;;;;;3.43;1.07;;;8.80;99.90;;;;;;4917617;29;20190;-69
2023/11/08 04:25:13;;;;;;;4.20;1.53;;;8.90;99.90;;;;;;4920180;29;20316;-68
2023/11/08 04:27:39;;;;;;;2.43;1.00;;;8.90;99.90;;;;;;4917777;29;20466;-68
2023/11/08 04:30:05;;;;;;;2.70;1.13;;;8.90;99.90;;;;;;4912123;29;20434;-67
2023/11/08 04:32:30;;;;;;;4.50;1.20;;;9.00;99.90;;;;;;4907948;29;20198;-68
2023/11/08 04:34:56;;;;;;;3.67;0.97;;;9.00;99.90;;;;;;4912237;29;20439;-68
2023/11/08 04:37:21;;;;;;;1.80;0.73;;;9.10;99.90;;;;;;4902674;29;20195;-68
2023/11/08 04:39:50;;;;;;;2.70;1.00;;;9.10;99.90;;;;;;4902900;29;20273;-69
2023/11/08 04:42:16;;;;;;;2.27;1.17;;;9.10;99.90;;;;;;4905845;29;20218;-68
2023/11/08 04:44:48;;;;;;;2.00;1.37;;;9.00;99.90;;;;;;4922863;29;20485;-68
2023/11/08 04:47:18;;;;;;;3.07;1.30;;;9.00;99.90;;;;;;4922134;29;20498;-68
2023/11/08 04:49:48;;;;;;;2.23;0.80;;;9.00;99.90;;;;;;4907501;29;20425;-68
2023/11/08 04:52:15;;;;;;;2.30;1.30;;;9.00;99.90;;;;;;4910736;29;20466;-68
2023/11/08 04:54:40;;;;;;;4.57;1.20;;;8.90;99.90;;;;;;4912580;29;20450;-69
2023/11/08 04:57:06;;;;;;;5.97;1.50;;;8.70;99.90;;;;;;4908290;29;20430;-67
2023/11/08 04:59:33;;;;;;;3.53;1.43;;;8.70;99.90;;;;;;4918374;29;20317;-69
2023/11/08 05:01:59;;;;;;;3.30;1.63;;;8.60;99.90;;;;;;4928872;29;20214;-68
2023/11/08 05:04:25;;;;;;;2.27;1.40;;;8.50;99.90;;;;;;4922839;29;20522;-68
2023/11/08 05:06:50;;;;;;;1.67;1.03;;;8.50;99.90;;;;;;4913379;29;20768;-68
2023/11/08 05:09:17;;;;;;;4.57;2.07;;;8.50;99.90;;;;;;4911570;29;20266;-68
2023/11/08 05:11:42;;;;;;;4.40;1.77;;;8.40;99.90;;;;;;4906208;29;20191;-68
2023/11/08 05:14:08;;;;;;;5.63;2.20;;;8.40;99.90;;;;;;4919945;29;20514;-68
2023/11/08 05:16:34;;;;;;;3.47;1.50;;;8.40;99.90;;;;;;4905274;29;20620;-67
2023/11/08 05:18:59;;;;;;;4.07;1.50;;;8.30;99.90;;;;;;4904749;29;20210;-68
2023/11/08 05:21:26;;;;;;;3.63;1.20;;;8.20;99.90;;;;;;4922623;29;20287;-68
2023/11/08 05:23:52;;;;;;;4.07;1.27;;;8.20;99.90;;;;;;4916958;29;20199;-68
2023/11/08 05:26:21;;;;;;;3.00;1.30;;;8.20;99.90;;;;;;4904400;29;20572;-69
2023/11/08 05:28:47;;;;;;;6.13;1.97;;;8.10;99.90;;;;;;4903671;29;20975;-67
2023/11/08 05:31:12;;;;;;;4.43;1.27;;;8.00;99.90;;;;;;4911148;29;20426;-68
2023/11/08 05:33:41;;;;;;;4.17;1.80;;;8.00;99.90;;;;;;4922632;29;20532;-68
2023/11/08 05:36:07;;;;;;;1.73;1.10;;;7.90;99.90;;;;;;4914911;29;20235;-70
2023/11/08 05:38:32;;;;;;;2.33;1.10;;;7.90;99.90;;;;;;4921240;29;20418;-67
2023/11/08 05:40:58;;;;;;;3.30;1.67;;;7.90;99.90;;;;;;4922482;29;20430;-68
2023/11/08 05:43:25;;;;;;;2.20;1.27;;;8.00;99.90;;;;;;4915614;29;20198;-67
2023/11/08 05:45:51;;;;;;;5.80;1.83;;;8.10;99.90;;;;;;4910025;29;20454;-67
2023/11/08 05:48:18;;;;;;;3.43;1.17;;;8.20;99.90;;;;;;4918021;29;20459;-68
2023/11/08 05:50:44;;;;;;;7.30;1.47;;;8.30;99.90;;;;;;4915861;29;20836;-68
2023/11/08 05:53:14;;;;;;;3.60;1.20;;;8.30;99.90;;;;;;4903554;29;20844;-69
2023/11/08 05:55:41;;;;;;;2.40;0.93;;;8.40;99.90;;;;;;4913914;29;20440;-71
2023/11/08 05:58:07;;;;;;;4.23;1.27;;;8.50;99.90;;;;;;4914272;29;20486;-69
2023/11/08 06:00:34;;;;;;;1.97;1.43;;;8.50;99.90;;;;;;4905667;29;20431;-68
2023/11/08 06:03:00;;;;;;;3.27;1.60;;;8.50;99.90;;;;;;4921212;29;20313;-68
2023/11/08 06:05:28;;;;;;;2.17;1.13;;;8.60;99.90;;;;;;4915466;29;20442;-68
2023/11/08 06:07:55;;;;;;;5.30;1.53;;;8.60;99.90;;;;;;4900283;29;20286;-68
2023/11/08 06:10:21;;;;;;;3.03;1.20;;;8.70;99.90;;;;;;4922468;29;20495;-68
2023/11/08 06:12:46;;;;;;;2.90;1.10;;;8.70;99.90;;;;;;4929539;29;20448;-73
2023/11/08 06:15:14;;;;;;;1.60;1.00;;;8.70;99.90;;;;;;4903294;29;20521;-70
2023/11/08 06:17:39;;;;;;;3.47;2.13;;;8.70;99.90;;;;;;4906065;29;20609;-69
2023/11/08 06:20:08;;;;;;;4.50;1.70;;;8.70;99.90;;;;;;4907079;29;20529;-69
2023/11/08 06:22:34;;;;;;;3.43;1.80;;;8.70;99.90;;;;;;4904752;29;20210;-70
2023/11/08 06:25:00;;;;;;;4.30;1.97;;;8.70;99.90;;;;;;4907755;29;20759;-70
2023/11/08 06:27:25;;;;;;;3.93;1.47;;;8.70;99.90;;;;;;4922593;29;20193;-70
2023/11/08 06:29:51;;;;;;;2.90;1.40;;;8.70;99.90;;;;;;4889239;29;20571;-69
2023/11/08 06:32:20;;;;;;;2.43;1.30;;;8.60;99.90;;;;;;4924286;29;20202;-72
2023/11/08 06:34:46;;;;;;;3.77;1.50;;;8.60;99.90;;;;;;4913583;29;20207;-70
2023/11/08 06:37:12;;;;;;;4.87;1.60;;;8.70;99.90;;;;;;4915536;29;20438;-70
2023/11/08 06:39:37;;;;;;;5.13;1.87;;;8.70;99.90;;;;;;4924789;29;20419;-73
2023/11/08 06:42:03;;;;;;;2.70;1.43;;;8.80;99.90;;;;;;4929847;29;20194;-72
2023/11/08 06:44:29;;;;;;;3.03;1.60;;;8.80;99.90;;;;;;4937831;29;20210;-69
2023/11/08 06:46:54;;;;;;;4.93;1.50;;;8.80;99.90;;;;;;4938732;29;20489;-70
2023/11/08 06:49:20;;;;;;;5.27;1.27;;;8.90;99.90;;;;;;4923281;29;20262;-72
2023/11/08 06:51:46;;;;;;;4.40;1.00;;;8.90;99.90;;;;;;4924380;29;20495;-70
2023/11/08 06:54:12;;;;;;;2.13;1.20;;;8.90;99.90;;;;;;4912917;29;20645;-71
2023/11/08 06:56:39;;;;;;;2.57;1.10;;;8.90;99.90;;;;;;4909345;29;20450;-70
2023/11/08 06:59:04;;;;;;;3.60;1.50;;;8.90;99.90;;;;;;4918041;29;20845;-72
2023/11/08 07:01:32;;;;;;;3.53;1.53;;;8.90;99.90;;;;;;4922029;29;20290;-70
2023/11/08 07:03:58;;;;;;;4.10;1.43;;;8.90;99.90;;;;;;4908159;29;20198;-71
2023/11/08 07:06:24;;;;;;;3.73;1.27;;;8.90;99.90;;;;;;4914881;29;20431;-70
2023/11/08 07:08:49;;;;;;;2.93;1.23;;;9.00;99.90;;;;;;4919712;29;20275;-70
2023/11/08 07:11:15;;;;;;;2.93;1.83;;;9.00;99.90;;;;;;4915256;29;20277;-72
2023/11/08 07:13:41;;;;;;;3.40;1.70;;;9.00;99.90;;;;;;4921116;29;20468;-72
2023/11/08 07:16:07;;;;;;;5.90;2.30;;;9.10;99.90;;;;;;4910004;29;20447;-72
2023/11/08 07:18:32;;;;;;;4.20;2.20;;;9.20;99.90;;;;;;4902309;29;20741;-74
2023/11/08 07:20:58;;;;;;;11.30;3.57;;;9.20;99.90;;;;;;4924424;29;20198;-73
2023/11/08 07:23:24;;;;;;;4.67;2.30;;;9.30;99.90;;;;;;4911223;29;20179;-73
2023/11/08 07:25:50;;;;;;;8.63;1.60;;;9.40;99.90;;;;;;4892890;29;20214;-72
2023/11/08 07:28:15;;;;;;;6.60;2.53;;;9.50;99.90;;;;;;4922110;29;20565;-74
2023/11/08 07:30:41;;;;;;;7.80;2.10;;;9.70;99.90;;;;;;4918474;29;20234;-71
2023/11/08 07:33:07;;;;;;;4.40;2.00;;;9.70;99.90;;;;;;4929798;29;20183;-73
2023/11/08 07:35:33;;;;;;;9.50;2.30;;;9.80;99.90;;;;;;4916389;29;20214;-70
2023/11/08 07:37:58;;;;;;;4.37;1.70;;;9.90;99.90;;;;;;4913410;29;20198;-70
2023/11/08 07:40:24;;;;;;;2.93;1.50;;;9.90;99.90;;;;;;4922991;29;20524;-70
2023/11/08 07:42:50;;;;;;;6.80;1.90;;;10.00;99.90;;;;;;4913624;29;20230;-72
2023/11/08 07:45:16;;;;;;;8.20;2.00;;;10.00;99.90;;;;;;4904552;29;20489;-72
2023/11/08 07:47:43;;;;;;;3.77;1.53;;;10.00;99.90;;;;;;4919948;29;20462;-72
2023/11/08 07:50:09;;;;;;;5.60;2.00;;;10.10;99.90;;;;;;4905870;29;20448;-71
2023/11/08 07:52:34;;;;;;;3.43;1.40;;;10.10;99.90;;;;;;4908214;29;20438;-72
2023/11/08 07:55:00;;;;;;;3.40;1.33;;;10.20;99.90;;;;;;4913913;29;20211;-71
2023/11/08 07:57:26;;;;;;;5.03;1.27;;;10.30;99.90;;;;;;4920962;29;20222;-70
2023/11/08 07:59:51;;;;;;;5.90;1.60;;;10.30;99.90;;;;;;4922646;29;20581;-71
2023/11/08 08:02:17;;;;;;;6.90;2.13;;;10.30;99.90;;;;;;4916738;29;20183;-69
2023/11/08 08:04:43;;;;;;;6.30;1.90;;;10.30;99.90;;;;;;4904839;29;20210;-70
2023/11/08 08:07:09;;;;;;;7.90;2.30;;;10.30;99.90;;;;;;4911144;29;20190;-70
2023/11/08 08:09:35;;;;;;;7.53;1.90;;;10.30;99.90;;;;;;4922728;29;20214;-69
2023/11/08 08:12:00;;;;;;;7.13;1.60;;;10.30;99.90;;;;;;4906197;29;20479;-70
2023/11/08 08:14:26;;;;;;;6.10;1.67;;;10.20;99.90;;;;;;4913704;29;20451;-71
2023/11/08 08:16:52;;;;;;;2.90;1.40;;;10.20;99.90;;;;;;4905307;29;20203;-71
2023/11/08 08:19:17;;;;;;;3.80;1.70;;;10.30;99.90;;;;;;4897395;29;20264;-70
2023/11/08 08:21:47;;;;;;;4.50;1.47;;;10.30;99.90;;;;;;4910866;29;20608;-70
2023/11/08 08:24:14;;;;;;;3.47;1.43;;;10.30;99.90;;;;;;4902112;29;20203;-70
2023/11/08 08:26:40;;;;;;;6.57;1.57;;;10.30;99.90;;;;;;4911648;29;20442;-69
2023/11/08 08:29:06;;;;;;;2.67;1.30;;;10.30;99.90;;;;;;4907168;29;20474;-71
2023/11/08 08:31:33;;;;;;;7.37;2.07;;;10.30;99.90;;;;;;4928795;29;20277;-71
2023/11/08 08:33:59;;;;;;;5.53;1.80;;;10.40;99.90;;;;;;4911129;29;20424;-70
2023/11/08 08:36:25;;;;;;;3.03;1.40;;;10.40;99.90;;;;;;4888964;29;20448;-76
2023/11/08 08:38:51;;;;;;;3.87;1.90;;;10.50;99.90;;;;;;4911541;29;20455;-70
2023/11/08 08:41:18;;;;;;;4.33;2.10;;;10.50;99.90;;;;;;4909716;29;20410;-71
2023/11/08 08:43:43;;;;;;;3.20;1.50;;;10.50;99.90;;;;;;4917167;29;20493;-73
2023/11/08 08:46:09;;;;;;;3.63;1.40;;;10.60;99.90;;;;;;4920885;29;20447;-70
2023/11/08 08:48:34;;;;;;;2.83;1.90;;;10.60;99.90;;;;;;4914208;29;20250;-74
2023/11/08 08:51:01;;;;;;;4.50;1.70;;;10.60;99.90;;;;;;4906827;29;20184;-71
2023/11/08 08:53:27;;;;;;;4.63;1.47;;;10.60;99.90;;;;;;4915075;29;20215;-71
2023/11/08 08:55:53;;;;;;;2.00;1.13;;;10.70;99.90;;;;;;4907339;29;20784;-72
2023/11/08 08:58:18;;;;;;;4.80;1.50;;;10.80;99.90;;;;;;4890973;29;20513;-69
2023/11/08 09:00:44;;;;;;;3.47;1.00;;;10.80;99.90;;;;;;4915906;29;20213;-72
2023/11/08 09:03:10;;;;;;;3.10;1.30;;;10.90;99.90;;;;;;4899560;29;20731;-70
2023/11/08 09:05:35;;;;;;;2.90;1.17;;;10.90;99.90;;;;;;4892598;29;20240;-71
2023/11/08 09:08:02;;;;;;;5.33;2.40;;;11.00;99.90;;;;;;4906832;29;20285;-72
2023/11/08 09:10:28;;;;;;;7.50;2.97;;;11.00;99.90;;;;;;4914161;29;20195;-70
2023/11/08 09:12:54;;;;;;;4.73;1.60;;;11.00;99.90;;;;;;4918931;29;20686;-71
2023/11/08 09:15:19;;;;;;;2.27;1.00;;;11.10;99.90;;;;;;4924503;29;20457;-73
2023/11/08 09:17:46;;;;;;;5.10;1.77;;;11.10;99.90;;;;;;4906384;29;20239;-71
2023/11/08 09:20:12;;;;;;;5.87;2.37;;;11.10;99.90;;;;;;4912185;29;20282;-71
2023/11/08 09:22:40;;;;;;;3.47;1.17;;;11.30;99.90;;;;;;4896238;29;20446;-70
2023/11/08 09:25:08;;;;;;;2.43;1.20;;;11.40;99.90;;;;;;4905421;29;20215;-70
2023/11/08 09:27:34;;;;;;;4.87;1.37;;;11.40;99.90;;;;;;4899851;29;20423;-73
2023/11/08 09:30:00;;;;;;;5.10;1.40;;;11.40;99.90;;;;;;4907777;29;20911;-71
2023/11/08 09:32:27;;;;;;;6.50;1.60;;;11.40;99.90;;;;;;4904522;29;20419;-74
2023/11/08 09:34:55;;;;;;;4.63;1.37;;;11.50;99.90;;;;;;4915401;29;20297;-74
2023/11/08 09:37:21;;;;;;;6.30;1.80;;;11.50;99.90;;;;;;4920939;29;20561;-69
2023/11/08 09:39:49;;;;;;;4.40;1.80;;;11.50;99.90;;;;;;4930798;29;20444;-70
2023/11/08 09:42:18;;;;;;;7.17;1.63;;;11.50;99.90;;;;;;4919169;29;20473;-70
2023/11/08 09:44:46;;;;;;;3.30;1.40;;;11.50;99.90;;;;;;4917133;29;20442;-69
2023/11/08 09:47:13;;;;;;;3.00;1.37;;;11.50;99.90;;;;;;4926823;29;20452;-71
2023/11/08 09:49:40;;;;;;;6.73;2.20;;;11.50;99.90;;;;;;4895325;29;20470;-71
2023/11/08 09:52:07;;;;;;;4.73;1.73;;;11.50;99.90;;;;;;4922593;29;20441;-70
2023/11/08 09:54:33;;;;;;;4.33;2.40;;;11.50;99.90;;;;;;4927809;29;20483;-69
2023/11/08 09:56:59;;;;;;;5.43;1.90;;;11.50;99.90;;;;;;4925968;29;20502;-70
2023/11/08 09:59:28;;;;;;;5.27;2.40;;;11.60;99.10;;;;;;4899524;29;20243;-70
2023/11/08 10:01:56;;;;;;;5.03;1.67;;;11.60;98.40;;;;;;4922611;29;20435;-73
2023/11/08 10:04:23;;;;;;;11.37;2.33;;;11.70;97.80;;;;;;4928035;29;20429;-72
2023/11/08 10:06:49;;;;;;;4.53;1.80;;;11.80;97.30;;;;;;4924929;29;20430;-74
2023/11/08 10:09:16;;;;;;;7.60;2.00;;;11.90;96.40;;;;;;4946503;29;20540;-73
2023/11/08 10:11:42;;;;;;;4.00;1.67;;;12.10;95.10;;;;;;4942329;29;20186;-69
2023/11/08 10:14:08;;;;;;;4.90;2.50;;;12.30;93.70;;;;;;4926249;29;20440;-72
2023/11/08 10:16:47;;;;;;;5.33;2.17;;;12.40;91.80;;;;;;4909136;29;20424;-71
2023/11/08 10:19:14;;;;;;;4.17;1.97;;;12.50;90.00;;;;;;4933029;29;20200;-73
2023/11/08 10:21:48;;;;;;;8.50;2.30;;;12.60;86.30;;;;;;4915630;29;20430;-72
2023/11/08 10:24:16;;;;;;;4.80;2.43;;;12.60;85.60;;;;;;4907622;29;20415;-71
2023/11/08 10:26:42;;;;;;;8.23;2.43;;;12.60;85.60;;;;;;4909362;29;20422;-70
2023/11/08 10:29:11;;;;;;;4.20;1.73;;;12.60;86.20;;;;;;4921948;29;20459;-70
2023/11/08 10:31:43;;;;;;;7.00;2.20;;;12.60;85.20;;;;;;4924772;29;20714;-73
2023/11/08 10:34:11;;;;;;;9.17;2.97;;;12.60;84.60;;;;;;4907204;29;20424;-75
2023/11/08 10:36:38;;;;;;;3.60;1.47;;;12.60;83.80;;;;;;4918702;29;20419;-70
2023/11/08 10:39:13;;;;;;;4.13;1.60;;;12.60;82.40;;;;;;4924404;29;20933;-71
2023/11/08 10:41:41;;;;;;;4.93;2.10;;;12.60;81.40;;;;;;4911171;29;20461;-72
2023/11/08 10:44:15;;;;;;;6.83;1.60;;;12.60;79.10;;;;;;4916339;29;20437;-73
2023/11/08 10:46:42;;;;;;;3.20;1.60;;;12.50;79.20;;;;;;4932291;29;20441;-72
2023/11/08 10:49:10;;;;;;;5.00;1.73;;;12.40;80.50;;;;;;4915671;29;20457;-71
2023/11/08 10:51:38;;;;;;;5.63;1.70;;;12.40;80.00;;;;;;4911401;29;20428;-70
2023/11/08 10:54:07;;;;;;;7.50;1.33;;;12.50;79.20;;;;;;4909650;29;20438;-74
2023/11/08 10:56:34;;;;;;;9.27;1.60;;;12.50;77.80;;;;;;4907875;29;20435;-71
2023/11/08 10:59:03;;;;;;;7.90;1.80;;;12.60;77.90;;;;;;4915594;29;20477;-73
2023/11/08 11:01:31;;;;;;;2.33;1.27;;;12.70;76.90;;;;;;4929756;29;20510;-72
2023/11/08 11:04:05;;;;;;;7.23;1.60;;;12.70;77.80;;;;;;4897467;29;20451;-72
2023/11/08 11:06:35;;;;;;;3.43;1.53;;;12.70;75.80;;;;;;4919724;29;20914;-74
2023/11/08 11:09:10;;;;;;;5.37;2.00;;;12.60;75.50;;;;;;4916962;29;20475;-71
2023/11/08 11:11:42;;;;;;;4.97;1.57;;;12.60;76.00;;;;;;4916936;29;20457;-72
2023/11/08 11:14:27;;;;;;;5.10;2.17;;;12.50;76.40;;;;;;4916365;29;20484;-74
2023/11/08 11:17:33;;;;;;;9.70;1.67;;;12.50;76.20;;;;;;4915826;29;20424;-72
2023/11/08 11:20:05;;;;;;;5.20;2.33;;;12.50;76.30;;;;;;4904359;29;20470;-73
2023/11/08 11:22:32;;;;;;;4.43;1.77;;;12.50;75.80;;;;;;4920816;29;20434;-72
2023/11/08 11:24:58;;;;;;;10.43;2.20;;;12.50;76.30;;;;;;4894779;29;20532;-72
2023/11/08 11:27:36;;;;;;;9.73;2.57;;;12.50;74.30;;;;;;4929809;29;20456;-71
2023/11/08 11:30:14;;;;;;;5.80;1.87;;;12.50;74.40;;;;;;4917214;29;20195;-73
2023/11/08 11:32:46;;;;;;;3.63;1.60;;;12.50;74.50;;;;;;4912817;29;20414;-72
2023/11/08 11:35:18;;;;;;;4.53;1.70;;;12.60;74.80;;;;;;4905238;29;20450;-74
2023/11/08 11:38:06;;;;;;;10.60;2.17;;;12.60;74.30;;;;;;4917318;29;20429;-74
2023/11/08 11:40:35;;;;;;;4.30;1.90;;;12.70;73.80;;;;;;4937846;29;20428;-74
2023/11/08 11:43:01;;;;;;;3.97;1.80;;;12.60;73.00;;;;;;4921054;29;20432;-75
2023/11/08 11:45:30;;;;;;;4.13;1.97;;;12.60;72.40;;;;;;4902466;29;20461;-75
2023/11/08 11:47:57;;;;;;;3.70;1.70;;;12.70;71.80;;;;;;4900187;29;20256;-75
2023/11/08 11:50:27;;;;;;;4.37;1.63;;;12.70;71.80;;;;;;4906369;29;20451;-74
2023/11/08 11:52:53;;;;;;;6.03;2.70;;;12.70;72.10;;;;;;4924077;29;20433;-75
2023/11/08 11:55:22;;;;;;;3.40;1.83;;;12.80;71.80;;;;;;4923548;29;20461;-74
2023/11/08 11:57:48;;;;;;;4.03;2.57;;;12.90;71.80;;;;;;4899123;29;20474;-75
2023/11/08 12:00:15;;;;;;;4.50;2.30;;;13.00;71.10;;;;;;4918180;29;20735;-75
2023/11/08 12:02:41;;;;;;;3.87;2.00;;;13.20;70.20;;;;;;4923334;29;20191;-75
2023/11/08 12:05:07;;;;;;;5.83;2.70;;;13.30;68.60;;;;;;4893491;29;20525;-74
2023/11/08 12:07:36;;;;;;;7.17;2.60;;;13.40;67.10;;;;;;4902398;29;20246;-75
2023/11/08 12:10:07;;;;;;;3.50;1.40;;;13.40;66.80;;;;;;4924128;29;20404;-75
2023/11/08 12:12:33;;;;;;;2.47;1.50;;;13.40;66.50;;;;;;4929745;29;20510;-74
2023/11/08 12:15:12;;;;;;;5.20;1.90;;;13.40;66.90;;;;;;4932917;29;20470;-74
2023/11/08 12:17:38;;;;;;;3.70;1.60;;;13.50;66.70;;;;;;4907986;29;20497;-73
2023/11/08 12:20:05;;;;;;;3.10;1.67;;;13.40;66.20;;;;;;4915394;29;20463;-73
2023/11/08 12:22:31;;;;;;;3.40;1.63;;;13.50;66.00;;;;;;4932375;29;20183;-72
2023/11/08 12:24:57;;;;;;;4.47;2.03;;;13.50;65.80;;;;;;4926039;29;20588;-71
2023/11/08 12:27:24;;;;;;;5.27;2.07;;;13.60;65.60;;;;;;4916565;29;20418;-74
2023/11/08 12:29:49;;;;;;;8.33;2.50;;;13.70;65.70;;;;;;4895441;29;20203;-71
2023/11/08 12:32:15;;;;;;;4.60;1.40;;;13.60;64.60;;;;;;4911175;29;20487;-75
2023/11/08 12:34:41;;;;;;;2.77;1.77;;;13.60;64.90;;;;;;4912945;29;20250;-75
2023/11/08 12:37:07;;;;;;;4.10;1.70;;;13.60;64.90;;;;;;4895167;29;20486;-72
2023/11/08 12:39:33;;;;;;;4.23;1.87;;;13.60;65.30;;;;;;4916651;29;20548;-72
2023/11/08 12:41:59;;;;;;;2.67;1.50;;;13.60;65.10;;;;;;4920377;29;20445;-71
2023/11/08 12:44:24;;;;;;;2.87;1.30;;;13.60;65.20;;;;;;4930074;29;20198;-72
2023/11/08 12:46:59;;;;;;;3.10;1.53;;;13.60;65.70;;;;;;4921526;29;20209;-72
2023/11/08 12:49:41;;;;;;;3.17;1.43;;;13.60;65.70;;;;;;4892776;29;20228;-72
2023/11/08 12:52:10;;;;;;;5.93;2.47;;;13.60;65.30;;;;;;4912440;29;20431;-70